Latest Weather Observations for kunanyi / Mount Wellington

IDT60901

Issued at 8:11 pm EST Tuesday 26 July 2016 (issued every 10 minutes, with the page automatically refreshed every 10 minutes)

About weather observations | Map of Hobart area stations | Latest observations for Hobart area | Other Formats
Station Details ID: 094087 Name: KUNANYI (MOUNT WELLINGTON PINNACLE) Lat: -42.90 Lon: 147.24 Height: 1260.47 m
Data from the previous 72 hours. | See also: Recent months at kunanyi / Mount Wellington
Date/Time
EST
Temp
°C
App
Temp
°C
Dew
Point
°C
Rel
Hum
%
Delta-T
°C
Wind Press
QNH
hPa
Press
MSL
hPa
Rain since
9am
mm
Dir  Spd
km/h
Gust
km/h
Spd
kts
Gust
kts
26/08:00pm -3.1 -15.4 -3.6 96 0.0 WNW 52 61 28 33 - - 0.0
26/07:30pm -3.1 -16.8 -3.6 96 0.0 WNW 59 69 32 37 - - 0.0
26/07:13pm -3.0 -15.7 -3.5 96 0.0 WNW 54 76 29 41 - - 0.0
26/07:00pm -3.2 -14.8 -3.7 96 0.0 WNW 48 57 26 31 - - 0.0
26/06:30pm -3.0 -15.3 -3.5 96 0.0 WNW 52 69 28 37 - - 0.0
26/06:08pm -3.0 -12.9 -3.5 96 0.0 WNW 39 59 21 32 - - 0.0
26/06:00pm -3.0 -13.6 -3.5 96 0.0 WNW 43 54 23 29 - - 0.0
26/05:30pm -3.1 -12.6 -3.6 96 0.0 WNW 37 48 20 26 - - 0.0
26/05:00pm -2.9 -12.0 -3.4 96 0.0 W 35 46 19 25 - - 0.0
26/04:30pm -2.8 -14.0 -3.3 96 0.0 W 46 65 25 35 - - 0.0
26/04:00pm -2.7 -15.4 -3.2 96 0.1 WNW 54 72 29 39 - - 0.0
26/03:32pm -2.6 -14.5 -3.1 96 0.1 WNW 50 69 27 37 - - 0.0
26/03:30pm -2.7 -15.0 -3.2 96 0.1 WNW 52 69 28 37 - - 0.0
26/03:00pm -2.7 -14.6 -3.2 96 0.1 WNW 50 70 27 38 - - 0.0
26/02:30pm -2.6 -17.0 -3.4 94 0.2 W 63 91 34 49 - - 0.0
26/02:00pm -2.6 -19.1 -3.3 95 0.1 W 74 100 40 54 - - 0.0
26/01:30pm -2.6 -18.2 -3.9 91 0.3 W 69 89 37 48 - - 0.0
26/01:00pm -2.6 -18.8 -3.9 91 0.3 W 72 93 39 50 - - 0.0
26/12:30pm -2.5 -19.8 -3.5 93 0.2 W 78 98 42 53 - - 0.0
26/12:00pm -2.9 -18.1 -3.7 94 0.1 W 67 89 36 48 - - 0.0
26/11:36am -3.0 -18.8 -4.0 93 0.2 W 70 96 38 52 - - 0.0
26/11:30am -2.8 -18.4 -3.8 93 0.2 W 69 85 37 46 - - 0.0
26/11:00am -3.0 -18.2 -3.8 94 0.1 W 67 109 36 59 - - 0.0
26/10:52am -3.1 -17.2 -3.9 94 0.1 W 61 109 33 59 - - 0.0
26/10:30am -3.5 -18.0 -4.5 93 0.2 W 63 91 34 49 - - 0.0
26/10:00am -3.9 -19.2 -4.9 93 0.2 W 67 91 36 49 - - 0.0
26/09:30am -3.9 -19.2 -4.9 93 0.2 W 67 95 36 51 - - 0.0
26/09:03am -4.1 -17.6 -5.2 92 0.2 W 57 93 31 50 - - 0.0
26/09:02am -4.1 -17.4 -5.2 92 0.2 W 56 93 30 50 - - 0.0
26/09:00am -4.1 -16.2 -5.1 93 0.2 W 50 83 27 45 - - 0.6
26/08:32am -4.0 -17.8 -4.8 94 0.1 W 59 107 32 58 - - 0.6
26/08:30am -4.0 -17.2 -4.8 94 0.1 W 56 74 30 40 - - 0.6
26/08:00am -4.2 -19.2 -5.3 92 0.2 W 65 91 35 49 - - 0.6
26/07:30am -4.6 -19.6 -5.7 92 0.2 W 65 89 35 48 - - 0.6
26/07:00am -4.6 -21.7 -5.6 93 0.1 W 76 96 41 52 - - 0.6
26/06:53am -4.7 -20.7 -5.7 93 0.1 W 70 95 38 51 - - 0.6
26/06:52am -4.7 -20.5 -5.7 93 0.1 W 69 95 37 51 - - 0.6
26/06:30am -4.4 -17.7 -5.2 94 0.1 W 56 85 30 46 - - 0.6
26/06:00am -4.1 -17.3 -4.8 95 0.1 WSW 56 78 30 42 - - 0.6
26/05:30am -4.3 -18.5 -5.1 94 0.1 W 61 85 33 46 - - 0.6
26/05:00am -4.0 -16.8 -4.8 94 0.1 W 54 72 29 39 - - 0.6
26/04:59am -4.0 -16.8 -4.8 94 0.1 W 54 72 29 39 - - 0.6
26/04:52am -4.0 -16.1 -4.7 95 0.1 W 50 72 27 39 - - 0.6
26/04:47am -3.9 -14.6 -4.6 95 0.1 WSW 43 61 23 33 - - 0.6
26/04:43am -3.9 -14.8 -4.6 95 0.1 W 44 63 24 34 - - 0.6
26/04:30am -3.9 -18.1 -4.6 95 0.1 W 61 80 33 43 - - 0.6
26/04:00am -4.2 -16.3 -5.0 94 0.1 W 50 72 27 39 - - 0.6
26/03:36am -3.8 -15.9 -4.5 95 0.1 WNW 50 69 27 37 - - 0.6
26/03:30am -3.8 -15.1 -4.5 95 0.1 WNW 46 61 25 33 - - 0.6
26/03:04am -3.7 -15.7 -4.4 95 0.1 WNW 50 69 27 37 - - 0.6
26/03:00am -3.8 -16.2 -4.5 95 0.1 W 52 69 28 37 - - 0.6
26/02:43am -3.8 -15.9 -4.5 95 0.1 WNW 50 67 27 36 - - 0.6
26/02:38am -3.8 -17.2 -4.5 95 0.1 W 57 80 31 43 - - 0.6
26/02:30am -3.8 -19.1 -4.6 94 0.1 W 67 87 36 47 - - 0.6
26/02:19am -3.8 -17.6 -4.5 95 0.1 W 59 85 32 46 - - 0.6
26/02:18am -3.8 -17.9 -4.5 95 0.1 W 61 85 33 46 - - 0.6
26/02:04am -3.8 -15.5 -4.5 95 0.1 WNW 48 74 26 40 - - 0.6
26/02:00am -3.8 -15.1 -4.5 95 0.1 WNW 46 61 25 33 - - 0.6
26/01:54am -3.8 -17.6 -4.5 95 0.1 WNW 59 91 32 49 - - 0.6
26/01:30am -3.7 -19.0 -4.4 95 0.1 W 67 93 36 50 - - 0.6
26/01:00am -3.5 -17.6 -4.2 95 0.1 W 61 83 33 45 - - 0.6
26/12:30am -3.3 -17.8 -4.0 95 0.1 W 63 87 34 47 - - 0.6
26/12:16am -3.4 -19.6 -4.1 95 0.1 W 72 98 39 53 - - 0.6
26/12:00am -3.3 -16.6 -4.0 95 0.1 W 57 82 31 44 - - 0.6
 
Date/Time
EST
Temp
°C
App
Temp
°C
Dew
Point
°C
Rel
Hum
%
Delta-T
°C
Wind Press
QNH
hPa
Press
MSL
hPa
Rain since
9am
mm
Dir  Spd
km/h
Gust
km/h
Spd
kts
Gust
kts
25/11:45pm -3.0 -14.9 -3.5 96 0.0 W 50 67 27 36 - - 0.6
25/11:38pm -2.9 -16.2 -3.6 95 0.1 W 57 76 31 41 - - 0.6
25/11:30pm -2.9 -17.7 -3.6 95 0.1 W 65 96 35 52 - - 0.6
25/11:00pm -2.9 -18.7 -3.9 93 0.2 W 70 100 38 54 - - 0.6
25/10:30pm -2.7 -18.4 -3.5 94 0.2 W 70 93 38 50 - - 0.6
25/10:00pm -2.4 -19.2 -3.2 94 0.2 W 76 102 41 55 - - 0.6
25/09:30pm -1.7 -15.5 -2.0 98 0.0 W 61 89 33 48 - - 0.6
25/09:29pm -1.6 -15.1 -1.9 98 0.0 W 59 82 32 44 - - 0.6
25/09:26pm -1.4 -14.8 -1.7 98 0.0 W 59 76 32 41 - - 0.6
25/09:00pm -0.9 -15.4 -1.2 98 0.1 NW 65 80 35 43 - - 0.6
25/08:56pm -0.9 -15.4 -1.2 98 0.1 NW 65 83 35 45 - - 0.6
25/08:30pm -0.6 -13.4 -0.9 98 0.1 NNW 56 76 30 41 - - 0.6
25/08:00pm -0.5 -14.9 -0.8 98 0.1 N 65 100 35 54 - - 0.6
25/07:30pm -0.4 -13.7 -1.1 95 0.2 NNW 59 83 32 45 - - 0.6
25/07:00pm -0.3 -14.1 -1.4 92 0.4 NNW 61 80 33 43 - - 0.6
25/06:30pm -0.3 -14.1 -1.6 91 0.5 NNW 61 85 33 46 - - 0.6
25/06:18pm -0.3 -13.3 -1.0 95 0.3 N 57 91 31 49 - - 0.6
25/06:07pm -0.3 -12.3 -0.7 97 0.1 N 52 72 28 39 - - 0.6
25/06:00pm -0.2 -11.8 -0.6 97 0.1 N 50 65 27 35 - - 0.6
25/05:30pm -0.2 -11.8 -0.5 98 0.1 N 50 65 27 35 - - 0.6
25/05:00pm -0.5 -11.0 -0.9 97 0.1 NNW 44 57 24 31 - - 0.6
25/04:30pm -0.3 -11.9 -0.6 98 0.1 NW 50 59 27 32 - - 0.6
25/04:00pm -0.3 -11.5 -0.6 98 0.1 NW 48 61 26 33 - - 0.6
25/03:30pm 0.1 -8.9 -0.2 98 0.1 NW 37 52 20 28 - - 0.6
25/03:03pm 0.1 -7.6 -0.2 98 0.1 NW 30 48 16 26 - - 0.6
25/03:00pm 0.1 -7.6 -0.2 98 0.1 NW 30 43 16 23 - - 0.6
25/02:30pm 0.1 -8.0 -0.2 98 0.1 NW 32 43 17 23 - - 0.6
25/02:07pm 0.0 -8.1 -0.3 98 0.1 WNW 32 52 17 28 - - 0.6
25/02:00pm 0.0 -7.0 -0.3 98 0.1 WNW 26 35 14 19 - - 0.6
25/01:30pm 0.2 -7.1 -0.1 98 0.1 WNW 28 39 15 21 - - 0.6
25/01:00pm 0.6 -6.3 0.3 98 0.1 WNW 26 41 14 22 - - 0.6
25/12:30pm 0.2 -8.4 -0.1 98 0.1 W 35 48 19 26 - - 0.6
25/12:00pm 0.2 -8.8 -0.1 98 0.1 W 37 50 20 27 - - 0.6
25/11:30am 0.2 -9.6 -0.1 98 0.1 W 41 54 22 29 - - 0.6
25/11:00am 0.2 -8.4 -0.1 98 0.1 W 35 56 19 30 - - 0.6
25/10:59am 0.2 -8.4 -0.1 98 0.1 W 35 56 19 30 - - 0.6
25/10:30am 0.2 -8.8 -0.1 98 0.1 W 37 44 20 24 - - 0.6
25/10:00am 0.2 -8.4 -0.1 98 0.1 W 35 46 19 25 - - 0.4
25/09:38am 0.0 -8.1 -0.3 98 0.1 W 32 50 17 27 - - 0.4
25/09:30am 0.0 -7.7 -0.3 98 0.1 W 30 39 16 21 - - 0.4
25/09:00am -0.1 -5.8 -0.4 98 0.1 WSW 19 30 10 16 - - 0.0
25/08:30am -0.4 -7.4 -0.7 98 0.1 W 26 33 14 18 - - 0.0
25/08:00am -0.5 -7.5 -0.8 98 0.1 W 26 37 14 20 - - 0.0
25/07:30am -0.5 -8.3 -0.8 98 0.1 WNW 30 35 16 19 - - 0.0
25/07:00am -0.4 -7.4 -0.7 98 0.1 WNW 26 33 14 18 - - 0.0
25/06:30am -0.3 -8.4 -0.6 98 0.1 WNW 32 37 17 20 - - 0.0
25/06:00am -0.7 -8.5 -1.0 98 0.1 WNW 30 35 16 19 - - 0.0
25/05:30am -0.5 -8.3 -0.8 98 0.1 WNW 30 37 16 20 - - 0.0
25/05:00am -0.6 -8.8 -0.9 98 0.1 NW 32 37 17 20 - - 0.0
25/04:30am -0.8 -8.6 -1.1 98 0.1 NW 30 33 16 18 - - 0.0
25/04:00am -0.8 -8.6 -1.1 98 0.1 WNW 30 35 16 19 - - 0.0
25/03:30am -1.0 -8.5 -1.3 98 0.1 WNW 28 37 15 20 - - 0.0
25/03:00am -0.8 -8.6 -1.1 98 0.1 WNW 30 39 16 21 - - 0.0
25/02:30am -0.8 -9.0 -1.1 98 0.1 WNW 32 39 17 21 - - 0.0
25/02:00am -0.7 -8.9 -1.0 98 0.1 NW 32 39 17 21 - - 0.0
25/01:30am -1.1 -8.6 -1.4 98 0.1 WNW 28 32 15 17 - - 0.0
25/01:00am -1.1 -8.6 -1.4 98 0.1 WNW 28 35 15 19 - - 0.0
25/12:30am -1.1 -8.2 -1.5 97 0.1 WNW 26 32 14 17 - - 0.0
25/12:00am -1.0 -9.3 -1.4 97 0.1 WNW 32 39 17 21 - - 0.0
 
Date/Time
EST
Temp
°C
App
Temp
°C
Dew
Point
°C
Rel
Hum
%
Delta-T
°C
Wind Press
QNH
hPa
Press
MSL
hPa
Rain since
9am
mm
Dir  Spd
km/h
Gust
km/h
Spd
kts
Gust
kts
24/11:30pm -1.3 -9.6 -1.7 97 0.1 NW 32 39 17 21 - - 0.0
24/11:00pm -1.4 -9.7 -1.8 97 0.1 NW 32 37 17 20 - - 0.0
24/10:30pm -1.8 -9.4 -2.2 97 0.1 NW 28 33 15 18 - - 0.0
24/10:00pm -2.0 -9.2 -2.4 97 0.0 NW 26 30 14 16 - - 0.0
24/09:30pm -2.0 -10.0 -2.4 97 0.0 WNW 30 35 16 19 - - 0.0
24/09:00pm -2.2 -9.5 -2.7 96 0.1 NW 26 30 14 16 - - 0.0
24/08:30pm -2.2 -9.1 -2.7 96 0.1 NW 24 30 13 16 - - 0.0
24/08:00pm -2.3 -8.8 -2.8 96 0.1 NNW 22 26 12 14 - - 0.0
24/07:30pm -2.4 -9.0 -2.9 96 0.1 NW 22 28 12 15 - - 0.0
24/07:00pm -2.4 -9.3 -2.9 96 0.1 NW 24 30 13 16 - - 0.0
24/06:30pm -2.4 -9.3 -2.9 96 0.1 NW 24 30 13 16 - - 0.0
24/06:00pm -2.4 -9.7 -2.9 96 0.1 NW 26 32 14 17 - - 0.0
24/05:30pm -2.4 -9.3 -2.9 96 0.1 NW 24 30 13 16 - - 0.0
24/05:00pm -2.2 -8.7 -2.7 96 0.1 NW 22 30 12 16 - - 0.0
24/04:30pm -2.1 -9.4 -2.6 96 0.1 NW 26 30 14 16 - - 0.0
24/04:00pm -2.3 -9.2 -2.8 96 0.1 NW 24 30 13 16 - - 0.0
24/03:30pm -2.2 -8.2 -2.7 96 0.1 WNW 19 24 10 13 - - 0.0
24/03:00pm -2.4 -8.6 -2.9 96 0.1 WNW 20 24 11 13 - - 0.0
24/02:30pm -2.8 -9.4 -3.5 95 0.1 WNW 22 28 12 15 - - 0.0
24/02:00pm -2.7 -10.0 -3.2 96 0.1 WNW 26 30 14 16 - - 0.0
24/01:30pm -2.3 -8.5 -2.8 96 0.1 WNW 20 28 11 15 - - 0.0
24/01:00pm -2.3 -8.5 -2.8 96 0.1 W 20 26 11 14 - - 0.0
24/12:30pm -2.4 -9.3 -2.9 96 0.1 WSW 24 30 13 16 - - 0.0
24/12:00pm -2.3 -10.0 -2.8 96 0.1 W 28 35 15 19 - - 0.0
24/11:30am -3.0 -11.2 -3.7 95 0.1 WSW 30 35 16 19 - - 0.0
24/11:00am -3.1 -9.8 -3.8 95 0.1 W 22 30 12 16 - - 0.0
24/10:30am -3.5 -11.0 -4.2 95 0.1 W 26 32 14 17 - - 0.0
24/10:00am -3.5 -13.1 -4.2 95 0.1 WSW 37 46 20 25 - - 0.0
24/09:30am -3.6 -13.5 -4.3 95 0.1 WSW 39 43 21 23 - - 0.0
24/09:00am -4.0 -13.6 -4.8 94 0.1 WSW 37 46 20 25 - - 0.0
24/08:30am -4.1 -14.5 -4.9 94 0.1 WSW 41 48 22 26 - - 0.0
24/08:00am -3.8 -12.4 -4.5 95 0.1 WSW 32 39 17 21 - - 0.0
24/07:30am -3.9 -11.0 -4.6 95 0.1 WSW 24 33 13 18 - - 0.0
24/07:00am -3.9 -12.7 -4.6 95 0.1 WSW 33 41 18 22 - - 0.0
24/06:30am -4.0 -12.3 -4.7 95 0.1 WSW 30 33 16 18 - - 0.0
24/06:00am -3.9 -12.7 -4.6 95 0.1 WSW 33 41 18 22 - - 0.0
24/05:30am -4.1 -14.1 -4.9 94 0.1 WSW 39 48 21 26 - - 0.0
24/05:00am -4.6 -14.3 -5.4 94 0.1 WSW 37 46 20 25 - - 0.0
24/04:30am -4.4 -13.3 -5.2 94 0.1 WSW 33 50 18 27 - - 0.0
24/04:00am -4.3 -13.0 -5.1 94 0.1 WSW 32 39 17 21 - - 0.0
24/03:30am -4.4 -15.8 -5.2 94 0.1 WSW 46 57 25 31 - - 0.0
24/03:00am -4.5 -15.3 -5.3 94 0.1 WSW 43 54 23 29 - - 0.0
24/02:30am -4.7 -15.5 -5.5 94 0.1 WSW 43 48 23 26 - - 0.0
24/02:00am -5.3 -16.4 -6.2 93 0.1 WSW 44 54 24 29 - - 0.0
24/01:30am -5.4 -16.9 -6.3 93 0.1 WSW 46 54 25 29 - - 0.0
24/01:00am -5.3 -16.2 -6.2 93 0.1 WSW 43 52 23 28 - - 0.0
24/12:30am -5.7 -15.5 -6.6 93 0.1 WSW 37 44 20 24 - - 0.0
24/12:00am -5.9 -16.5 -6.8 93 0.0 WSW 41 48 22 26 - - 0.0
 
Date/Time
EST
Temp
°C
App
Temp
°C
Dew
Point
°C
Rel
Hum
%
Delta-T
°C
Wind Press
QNH
hPa
Press
MSL
hPa
Rain since
9am
mm
Dir  Spd
km/h
Gust
km/h
Spd
kts
Gust
kts
23/11:30pm -6.0 -16.6 -7.1 92 0.1 WSW 41 52 22 28 - - 0.0
23/11:00pm -5.8 -16.4 -6.7 93 0.0 WSW 41 50 22 27 - - 0.0
23/10:30pm -5.6 -15.0 -6.5 93 0.1 WSW 35 44 19 24 - - 0.0
23/10:09pm -5.8 -15.6 -6.7 93 0.0 WSW 37 57 20 31 - - 0.0
23/10:00pm -5.8 -16.4 -6.7 93 0.0 WSW 41 54 22 29 - - 0.0
23/09:55pm -5.8 -16.9 -6.7 93 0.0 WSW 44 65 24 35 - - 0.0
23/09:30pm -6.4 -16.7 -7.5 92 0.1 WSW 39 46 21 25 - - 0.0
23/09:00pm -5.9 -15.7 -6.8 93 0.0 WSW 37 46 20 25 - - 0.0
23/08:30pm -5.7 -15.1 -6.6 93 0.1 WSW 35 57 19 31 - - 0.0
23/08:28pm -5.7 -15.5 -6.6 93 0.1 WSW 37 57 20 31 - - 0.0

Latest Capital City Observations: Canberra | Sydney | Melbourne | Brisbane | Adelaide | Perth | Hobart | Darwin

Other Formats:

Comma delimited format used in spreadsheet applications
http://www.bom.gov.au/fwo/IDT60901/IDT60901.95979.axf

JavaScript Object Notation format (JSON) in row-major order
http://www.bom.gov.au/fwo/IDT60901/IDT60901.95979.json